sensor_id;sensor_type;location;lat;lon;timestamp;P1;durP1;ratioP1;P2;durP2;ratioP2
55067;SDS011;40965;52.368;9.712;2023-04-25T00:01:15;13.95;;;4.47;;
55067;SDS011;40965;52.368;9.712;2023-04-25T00:03:42;9.95;;;4.22;;
55067;SDS011;40965;52.368;9.712;2023-04-25T00:06:08;12.55;;;4.00;;
55067;SDS011;40965;52.368;9.712;2023-04-25T00:08:35;8.82;;;4.35;;
55067;SDS011;40965;52.368;9.712;2023-04-25T00:11:01;17.40;;;4.50;;
55067;SDS011;40965;52.368;9.712;2023-04-25T00:13:28;9.50;;;3.92;;
55067;SDS011;40965;52.368;9.712;2023-04-25T00:15:54;7.28;;;3.55;;
55067;SDS011;40965;52.368;9.712;2023-04-25T00:18:21;11.43;;;4.28;;
55067;SDS011;40965;52.368;9.712;2023-04-25T00:20:48;12.02;;;4.50;;
55067;SDS011;40965;52.368;9.712;2023-04-25T00:23:18;8.98;;;3.90;;
55067;SDS011;40965;52.368;9.712;2023-04-25T00:25:44;9.65;;;3.80;;
55067;SDS011;40965;52.368;9.712;2023-04-25T00:28:12;6.90;;;4.35;;
55067;SDS011;40965;52.368;9.712;2023-04-25T00:30:39;8.13;;;4.05;;
55067;SDS011;40965;52.368;9.712;2023-04-25T00:33:06;10.85;;;4.30;;
55067;SDS011;40965;52.368;9.712;2023-04-25T00:35:33;8.85;;;3.42;;
55067;SDS011;40965;52.368;9.712;2023-04-25T00:38:00;9.63;;;3.78;;
55067;SDS011;40965;52.368;9.712;2023-04-25T00:40:27;10.00;;;3.83;;
55067;SDS011;40965;52.368;9.712;2023-04-25T00:42:54;5.50;;;3.20;;
55067;SDS011;40965;52.368;9.712;2023-04-25T00:45:21;13.10;;;4.05;;
55067;SDS011;40965;52.368;9.712;2023-04-25T00:47:47;8.45;;;3.92;;
55067;SDS011;40965;52.368;9.712;2023-04-25T00:50:14;6.43;;;4.55;;
55067;SDS011;40965;52.368;9.712;2023-04-25T00:52:41;12.15;;;4.50;;
55067;SDS011;40965;52.368;9.712;2023-04-25T00:55:10;5.75;;;3.22;;
55067;SDS011;40965;52.368;9.712;2023-04-25T00:57:38;9.60;;;3.65;;
55067;SDS011;40965;52.368;9.712;2023-04-25T01:00:05;5.47;;;3.28;;
55067;SDS011;40965;52.368;9.712;2023-04-25T01:02:34;6.93;;;4.20;;
55067;SDS011;40965;52.368;9.712;2023-04-25T01:05:02;9.02;;;4.10;;
55067;SDS011;40965;52.368;9.712;2023-04-25T01:07:29;11.32;;;4.22;;
55067;SDS011;40965;52.368;9.712;2023-04-25T01:09:56;11.77;;;4.05;;
55067;SDS011;40965;52.368;9.712;2023-04-25T01:12:23;8.05;;;3.80;;
55067;SDS011;40965;52.368;9.712;2023-04-25T01:14:50;8.23;;;4.03;;
55067;SDS011;40965;52.368;9.712;2023-04-25T01:17:17;7.13;;;4.22;;
55067;SDS011;40965;52.368;9.712;2023-04-25T01:19:44;10.80;;;5.03;;
55067;SDS011;40965;52.368;9.712;2023-04-25T01:22:13;14.05;;;4.85;;
55067;SDS011;40965;52.368;9.712;2023-04-25T01:24:40;10.32;;;4.20;;
55067;SDS011;40965;52.368;9.712;2023-04-25T01:27:07;10.73;;;4.40;;
55067;SDS011;40965;52.368;9.712;2023-04-25T01:29:35;10.38;;;5.57;;
55067;SDS011;40965;52.368;9.712;2023-04-25T01:32:02;10.45;;;5.30;;
55067;SDS011;40965;52.368;9.712;2023-04-25T01:34:30;15.18;;;4.53;;
55067;SDS011;40965;52.368;9.712;2023-04-25T01:36:56;14.50;;;4.75;;
55067;SDS011;40965;52.368;9.712;2023-04-25T01:39:27;13.68;;;5.55;;
55067;SDS011;40965;52.368;9.712;2023-04-25T01:41:54;7.70;;;3.85;;
55067;SDS011;40965;52.368;9.712;2023-04-25T01:44:21;10.85;;;5.22;;
55067;SDS011;40965;52.368;9.712;2023-04-25T01:46:47;9.18;;;4.97;;
55067;SDS011;40965;52.368;9.712;2023-04-25T01:49:14;9.35;;;5.18;;
55067;SDS011;40965;52.368;9.712;2023-04-25T01:51:40;12.27;;;5.57;;
55067;SDS011;40965;52.368;9.712;2023-04-25T01:54:07;9.82;;;5.50;;
55067;SDS011;40965;52.368;9.712;2023-04-25T01:56:36;12.30;;;4.10;;
55067;SDS011;40965;52.368;9.712;2023-04-25T01:59:04;12.45;;;5.60;;
55067;SDS011;40965;52.368;9.712;2023-04-25T02:01:31;11.90;;;5.18;;
55067;SDS011;40965;52.368;9.712;2023-04-25T02:03:58;23.30;;;6.07;;
55067;SDS011;40965;52.368;9.712;2023-04-25T02:06:25;7.47;;;4.47;;
55067;SDS011;40965;52.368;9.712;2023-04-25T02:08:51;7.55;;;4.50;;
55067;SDS011;40965;52.368;9.712;2023-04-25T02:11:18;9.18;;;4.55;;
55067;SDS011;40965;52.368;9.712;2023-04-25T02:13:44;7.22;;;4.38;;
55067;SDS011;40965;52.368;9.712;2023-04-25T02:16:11;12.18;;;5.13;;
55067;SDS011;40965;52.368;9.712;2023-04-25T02:18:38;13.00;;;5.15;;
55067;SDS011;40965;52.368;9.712;2023-04-25T02:21:04;8.95;;;4.18;;
55067;SDS011;40965;52.368;9.712;2023-04-25T02:23:31;6.20;;;3.90;;
55067;SDS011;40965;52.368;9.712;2023-04-25T02:25:59;11.77;;;4.63;;
55067;SDS011;40965;52.368;9.712;2023-04-25T02:28:25;8.85;;;4.40;;
55067;SDS011;40965;52.368;9.712;2023-04-25T02:30:52;13.45;;;3.75;;
55067;SDS011;40965;52.368;9.712;2023-04-25T02:33:19;10.07;;;3.58;;
55067;SDS011;40965;52.368;9.712;2023-04-25T02:35:46;12.68;;;3.90;;
55067;SDS011;40965;52.368;9.712;2023-04-25T02:38:13;11.50;;;3.65;;
55067;SDS011;40965;52.368;9.712;2023-04-25T02:40:39;10.98;;;2.60;;
55067;SDS011;40965;52.368;9.712;2023-04-25T02:43:06;16.52;;;4.82;;
55067;SDS011;40965;52.368;9.712;2023-04-25T02:45:33;10.00;;;3.03;;
55067;SDS011;40965;52.368;9.712;2023-04-25T02:48:00;10.25;;;2.65;;
55067;SDS011;40965;52.368;9.712;2023-04-25T02:50:26;12.52;;;3.25;;
55067;SDS011;40965;52.368;9.712;2023-04-25T02:52:53;9.60;;;3.10;;
55067;SDS011;40965;52.368;9.712;2023-04-25T02:55:19;11.57;;;4.95;;
55067;SDS011;40965;52.368;9.712;2023-04-25T02:57:47;8.48;;;3.83;;
55067;SDS011;40965;52.368;9.712;2023-04-25T03:00:13;10.43;;;2.88;;
55067;SDS011;40965;52.368;9.712;2023-04-25T03:02:40;17.92;;;5.03;;
55067;SDS011;40965;52.368;9.712;2023-04-25T03:05:07;14.45;;;3.67;;
55067;SDS011;40965;52.368;9.712;2023-04-25T03:07:33;12.80;;;4.22;;
55067;SDS011;40965;52.368;9.712;2023-04-25T03:10:00;11.55;;;2.95;;
55067;SDS011;40965;52.368;9.712;2023-04-25T03:12:27;12.57;;;3.25;;
55067;SDS011;40965;52.368;9.712;2023-04-25T03:14:53;12.55;;;2.75;;
55067;SDS011;40965;52.368;9.712;2023-04-25T03:17:20;14.70;;;4.82;;
55067;SDS011;40965;52.368;9.712;2023-04-25T03:19:46;14.13;;;3.47;;
55067;SDS011;40965;52.368;9.712;2023-04-25T03:22:13;12.07;;;2.63;;
55067;SDS011;40965;52.368;9.712;2023-04-25T03:24:40;13.88;;;4.25;;
55067;SDS011;40965;52.368;9.712;2023-04-25T03:27:06;11.55;;;3.80;;
55067;SDS011;40965;52.368;9.712;2023-04-25T03:29:33;17.23;;;3.35;;
55067;SDS011;40965;52.368;9.712;2023-04-25T03:31:59;13.57;;;3.70;;
55067;SDS011;40965;52.368;9.712;2023-04-25T03:34:26;8.88;;;3.35;;
55067;SDS011;40965;52.368;9.712;2023-04-25T03:36:53;9.70;;;2.90;;
55067;SDS011;40965;52.368;9.712;2023-04-25T03:39:20;8.95;;;2.83;;
55067;SDS011;40965;52.368;9.712;2023-04-25T03:41:47;14.93;;;3.70;;
55067;SDS011;40965;52.368;9.712;2023-04-25T03:44:13;10.90;;;3.67;;
55067;SDS011;40965;52.368;9.712;2023-04-25T03:46:40;11.30;;;3.97;;
55067;SDS011;40965;52.368;9.712;2023-04-25T03:49:07;12.50;;;5.20;;
55067;SDS011;40965;52.368;9.712;2023-04-25T03:51:33;12.90;;;4.28;;
55067;SDS011;40965;52.368;9.712;2023-04-25T03:54:00;7.97;;;3.13;;
55067;SDS011;40965;52.368;9.712;2023-04-25T03:56:26;9.18;;;3.25;;
55067;SDS011;40965;52.368;9.712;2023-04-25T03:58:53;12.40;;;3.28;;
55067;SDS011;40965;52.368;9.712;2023-04-25T04:01:19;5.55;;;3.00;;
55067;SDS011;40965;52.368;9.712;2023-04-25T04:03:46;12.05;;;4.22;;
55067;SDS011;40965;52.368;9.712;2023-04-25T04:06:12;15.05;;;4.50;;
55067;SDS011;40965;52.368;9.712;2023-04-25T04:08:40;16.50;;;3.70;;
55067;SDS011;40965;52.368;9.712;2023-04-25T04:11:06;20.25;;;3.90;;
55067;SDS011;40965;52.368;9.712;2023-04-25T04:13:33;13.15;;;3.78;;
55067;SDS011;40965;52.368;9.712;2023-04-25T04:15:59;17.48;;;4.50;;
55067;SDS011;40965;52.368;9.712;2023-04-25T04:18:26;18.35;;;4.68;;
55067;SDS011;40965;52.368;9.712;2023-04-25T04:20:52;8.40;;;4.00;;
55067;SDS011;40965;52.368;9.712;2023-04-25T04:23:19;11.10;;;3.83;;
55067;SDS011;40965;52.368;9.712;2023-04-25T04:25:47;10.63;;;4.50;;
55067;SDS011;40965;52.368;9.712;2023-04-25T04:28:14;13.90;;;4.45;;
55067;SDS011;40965;52.368;9.712;2023-04-25T04:30:41;23.33;;;4.85;;
55067;SDS011;40965;52.368;9.712;2023-04-25T04:33:12;16.30;;;4.43;;
55067;SDS011;40965;52.368;9.712;2023-04-25T04:35:40;14.40;;;4.13;;
55067;SDS011;40965;52.368;9.712;2023-04-25T04:38:07;19.48;;;4.85;;
55067;SDS011;40965;52.368;9.712;2023-04-25T04:40:37;20.55;;;3.33;;
55067;SDS011;40965;52.368;9.712;2023-04-25T04:43:04;20.38;;;4.47;;
55067;SDS011;40965;52.368;9.712;2023-04-25T04:45:31;20.17;;;5.93;;
55067;SDS011;40965;52.368;9.712;2023-04-25T04:47:58;10.30;;;3.38;;
55067;SDS011;40965;52.368;9.712;2023-04-25T04:50:25;19.35;;;3.92;;
55067;SDS011;40965;52.368;9.712;2023-04-25T04:52:52;24.65;;;4.78;;
55067;SDS011;40965;52.368;9.712;2023-04-25T04:55:20;15.68;;;4.53;;
55067;SDS011;40965;52.368;9.712;2023-04-25T04:57:46;14.25;;;3.85;;
55067;SDS011;40965;52.368;9.712;2023-04-25T05:00:15;15.80;;;3.95;;
55067;SDS011;40965;52.368;9.712;2023-04-25T05:02:43;15.98;;;4.18;;
55067;SDS011;40965;52.368;9.712;2023-04-25T05:05:09;14.50;;;4.10;;
55067;SDS011;40965;52.368;9.712;2023-04-25T05:07:36;23.00;;;5.75;;
55067;SDS011;40965;52.368;9.712;2023-04-25T05:10:02;12.48;;;3.65;;
55067;SDS011;40965;52.368;9.712;2023-04-25T05:12:30;23.23;;;5.72;;
55067;SDS011;40965;52.368;9.712;2023-04-25T05:14:56;14.32;;;3.72;;
55067;SDS011;40965;52.368;9.712;2023-04-25T05:17:23;22.38;;;4.35;;
55067;SDS011;40965;52.368;9.712;2023-04-25T05:19:49;14.10;;;3.75;;
55067;SDS011;40965;52.368;9.712;2023-04-25T05:22:19;13.68;;;4.25;;
55067;SDS011;40965;52.368;9.712;2023-04-25T05:24:45;13.85;;;3.63;;
55067;SDS011;40965;52.368;9.712;2023-04-25T05:27:13;15.43;;;3.35;;
55067;SDS011;40965;52.368;9.712;2023-04-25T05:29:43;20.27;;;5.63;;
55067;SDS011;40965;52.368;9.712;2023-04-25T05:32:10;14.10;;;5.25;;
55067;SDS011;40965;52.368;9.712;2023-04-25T05:34:37;18.75;;;4.65;;
55067;SDS011;40965;52.368;9.712;2023-04-25T05:37:03;17.77;;;4.10;;
55067;SDS011;40965;52.368;9.712;2023-04-25T05:39:30;16.48;;;3.83;;
55067;SDS011;40965;52.368;9.712;2023-04-25T05:41:56;30.60;;;6.15;;
55067;SDS011;40965;52.368;9.712;2023-04-25T05:44:23;18.92;;;5.13;;
55067;SDS011;40965;52.368;9.712;2023-04-25T05:46:50;12.75;;;2.67;;
55067;SDS011;40965;52.368;9.712;2023-04-25T05:49:16;16.02;;;3.65;;
55067;SDS011;40965;52.368;9.712;2023-04-25T05:51:43;14.25;;;5.43;;
55067;SDS011;40965;52.368;9.712;2023-04-25T05:54:09;8.10;;;3.53;;
55067;SDS011;40965;52.368;9.712;2023-04-25T05:56:36;16.50;;;3.92;;
55067;SDS011;40965;52.368;9.712;2023-04-25T05:59:02;11.20;;;3.40;;
55067;SDS011;40965;52.368;9.712;2023-04-25T06:01:31;15.30;;;3.28;;
55067;SDS011;40965;52.368;9.712;2023-04-25T06:03:58;16.88;;;3.30;;
55067;SDS011;40965;52.368;9.712;2023-04-25T06:06:28;16.65;;;2.60;;
55067;SDS011;40965;52.368;9.712;2023-04-25T06:08:55;16.58;;;3.80;;
55067;SDS011;40965;52.368;9.712;2023-04-25T06:11:21;12.60;;;3.75;;
55067;SDS011;40965;52.368;9.712;2023-04-25T06:13:48;15.00;;;3.70;;
55067;SDS011;40965;52.368;9.712;2023-04-25T06:16:14;13.52;;;3.80;;
55067;SDS011;40965;52.368;9.712;2023-04-25T06:18:41;13.73;;;2.80;;
55067;SDS011;40965;52.368;9.712;2023-04-25T06:21:07;18.73;;;3.60;;
55067;SDS011;40965;52.368;9.712;2023-04-25T06:23:34;16.88;;;3.35;;
55067;SDS011;40965;52.368;9.712;2023-04-25T06:26:01;23.30;;;3.72;;
55067;SDS011;40965;52.368;9.712;2023-04-25T06:28:28;10.57;;;4.80;;
55067;SDS011;40965;52.368;9.712;2023-04-25T06:30:54;12.40;;;3.00;;
55067;SDS011;40965;52.368;9.712;2023-04-25T06:33:21;8.60;;;2.58;;
55067;SDS011;40965;52.368;9.712;2023-04-25T06:35:49;10.63;;;3.33;;
55067;SDS011;40965;52.368;9.712;2023-04-25T06:38:15;14.00;;;4.78;;
55067;SDS011;40965;52.368;9.712;2023-04-25T06:40:42;12.27;;;3.45;;
55067;SDS011;40965;52.368;9.712;2023-04-25T06:43:08;17.85;;;4.10;;
55067;SDS011;40965;52.368;9.712;2023-04-25T06:45:35;10.93;;;3.03;;
55067;SDS011;40965;52.368;9.712;2023-04-25T06:48:02;18.48;;;3.75;;
55067;SDS011;40965;52.368;9.712;2023-04-25T06:50:29;14.68;;;3.80;;
55067;SDS011;40965;52.368;9.712;2023-04-25T06:52:56;7.80;;;2.80;;
55067;SDS011;40965;52.368;9.712;2023-04-25T06:55:22;16.05;;;3.22;;
55067;SDS011;40965;52.368;9.712;2023-04-25T06:57:49;17.63;;;3.63;;
55067;SDS011;40965;52.368;9.712;2023-04-25T07:00:16;19.15;;;3.80;;
55067;SDS011;40965;52.368;9.712;2023-04-25T07:02:43;15.77;;;3.08;;
55067;SDS011;40965;52.368;9.712;2023-04-25T07:05:10;15.40;;;3.97;;
55067;SDS011;40965;52.368;9.712;2023-04-25T07:07:37;10.48;;;2.80;;
55067;SDS011;40965;52.368;9.712;2023-04-25T07:10:03;9.40;;;2.72;;
55067;SDS011;40965;52.368;9.712;2023-04-25T07:12:30;10.05;;;2.85;;
55067;SDS011;40965;52.368;9.712;2023-04-25T07:14:57;7.97;;;2.88;;
55067;SDS011;40965;52.368;9.712;2023-04-25T07:17:23;17.95;;;3.60;;
55067;SDS011;40965;52.368;9.712;2023-04-25T07:19:50;7.32;;;4.43;;
55067;SDS011;40965;52.368;9.712;2023-04-25T07:22:17;13.43;;;3.42;;
55067;SDS011;40965;52.368;9.712;2023-04-25T07:24:43;9.52;;;2.92;;
55067;SDS011;40965;52.368;9.712;2023-04-25T07:27:13;12.35;;;3.28;;
55067;SDS011;40965;52.368;9.712;2023-04-25T07:29:42;12.35;;;2.85;;
55067;SDS011;40965;52.368;9.712;2023-04-25T07:32:09;18.17;;;3.42;;
55067;SDS011;40965;52.368;9.712;2023-04-25T07:34:37;16.38;;;3.83;;
55067;SDS011;40965;52.368;9.712;2023-04-25T07:37:03;10.95;;;3.08;;
55067;SDS011;40965;52.368;9.712;2023-04-25T07:39:31;7.53;;;2.60;;
55067;SDS011;40965;52.368;9.712;2023-04-25T07:41:57;10.07;;;2.45;;
55067;SDS011;40965;52.368;9.712;2023-04-25T07:44:25;12.98;;;3.53;;
55067;SDS011;40965;52.368;9.712;2023-04-25T07:46:51;8.60;;;2.80;;
55067;SDS011;40965;52.368;9.712;2023-04-25T07:49:18;13.77;;;2.13;;
55067;SDS011;40965;52.368;9.712;2023-04-25T07:51:45;8.27;;;2.50;;
55067;SDS011;40965;52.368;9.712;2023-04-25T07:54:13;5.85;;;1.90;;
55067;SDS011;40965;52.368;9.712;2023-04-25T07:56:41;10.45;;;2.28;;
55067;SDS011;40965;52.368;9.712;2023-04-25T07:59:07;6.65;;;2.17;;
55067;SDS011;40965;52.368;9.712;2023-04-25T08:01:34;10.75;;;1.98;;
55067;SDS011;40965;52.368;9.712;2023-04-25T08:04:00;6.93;;;2.60;;
55067;SDS011;40965;52.368;9.712;2023-04-25T08:06:27;6.20;;;2.72;;
55067;SDS011;40965;52.368;9.712;2023-04-25T08:08:54;3.50;;;1.52;;
55067;SDS011;40965;52.368;9.712;2023-04-25T08:11:20;6.53;;;1.90;;
55067;SDS011;40965;52.368;9.712;2023-04-25T08:13:47;7.15;;;3.05;;
55067;SDS011;40965;52.368;9.712;2023-04-25T08:16:13;10.73;;;2.38;;
55067;SDS011;40965;52.368;9.712;2023-04-25T08:18:40;8.75;;;2.63;;
55067;SDS011;40965;52.368;9.712;2023-04-25T08:21:07;11.82;;;2.60;;
55067;SDS011;40965;52.368;9.712;2023-04-25T08:23:36;8.85;;;2.70;;
55067;SDS011;40965;52.368;9.712;2023-04-25T08:26:03;6.18;;;2.20;;
55067;SDS011;40965;52.368;9.712;2023-04-25T08:28:29;11.75;;;2.28;;
55067;SDS011;40965;52.368;9.712;2023-04-25T08:30:56;6.75;;;1.98;;
55067;SDS011;40965;52.368;9.712;2023-04-25T08:33:23;5.70;;;2.00;;
55067;SDS011;40965;52.368;9.712;2023-04-25T08:35:49;5.82;;;2.20;;
55067;SDS011;40965;52.368;9.712;2023-04-25T08:38:17;6.07;;;1.92;;
55067;SDS011;40965;52.368;9.712;2023-04-25T08:40:44;7.43;;;1.98;;
55067;SDS011;40965;52.368;9.712;2023-04-25T08:43:17;5.88;;;1.85;;
55067;SDS011;40965;52.368;9.712;2023-04-25T08:45:45;6.57;;;1.60;;
55067;SDS011;40965;52.368;9.712;2023-04-25T08:48:13;4.10;;;1.60;;
55067;SDS011;40965;52.368;9.712;2023-04-25T08:50:45;6.97;;;2.20;;
55067;SDS011;40965;52.368;9.712;2023-04-25T08:53:18;6.03;;;1.52;;
55067;SDS011;40965;52.368;9.712;2023-04-25T08:55:53;9.95;;;1.90;;
55067;SDS011;40965;52.368;9.712;2023-04-25T08:58:21;9.02;;;1.73;;
55067;SDS011;40965;52.368;9.712;2023-04-25T09:00:49;7.20;;;1.35;;
55067;SDS011;40965;52.368;9.712;2023-04-25T09:03:17;4.90;;;2.38;;
55067;SDS011;40965;52.368;9.712;2023-04-25T09:05:44;7.13;;;1.17;;
55067;SDS011;40965;52.368;9.712;2023-04-25T09:08:11;3.58;;;1.33;;
55067;SDS011;40965;52.368;9.712;2023-04-25T09:10:38;4.65;;;1.55;;
55067;SDS011;40965;52.368;9.712;2023-04-25T09:13:09;4.70;;;1.40;;
55067;SDS011;40965;52.368;9.712;2023-04-25T09:15:49;18.27;;;2.17;;
55067;SDS011;40965;52.368;9.712;2023-04-25T09:18:31;4.78;;;1.00;;
55067;SDS011;40965;52.368;9.712;2023-04-25T09:23:46;2.50;;;0.80;;
55067;SDS011;40965;52.368;9.712;2023-04-25T09:26:18;5.82;;;1.25;;
55067;SDS011;40965;52.368;9.712;2023-04-25T09:28:46;5.35;;;0.93;;
55067;SDS011;40965;52.368;9.712;2023-04-25T09:31:21;2.92;;;0.82;;
55067;SDS011;40965;52.368;9.712;2023-04-25T09:33:49;2.28;;;1.05;;
55067;SDS011;40965;52.368;9.712;2023-04-25T09:36:16;5.20;;;0.90;;
55067;SDS011;40965;52.368;9.712;2023-04-25T09:38:46;3.47;;;0.80;;
55067;SDS011;40965;52.368;9.712;2023-04-25T09:41:15;4.80;;;0.75;;
55067;SDS011;40965;52.368;9.712;2023-04-25T09:43:49;4.85;;;1.80;;
55067;SDS011;40965;52.368;9.712;2023-04-25T09:46:16;4.65;;;0.95;;
55067;SDS011;40965;52.368;9.712;2023-04-25T09:48:49;4.75;;;0.98;;
55067;SDS011;40965;52.368;9.712;2023-04-25T09:51:18;2.28;;;0.70;;
55067;SDS011;40965;52.368;9.712;2023-04-25T09:53:51;4.80;;;1.25;;
55067;SDS011;40965;52.368;9.712;2023-04-25T09:56:18;2.40;;;0.85;;
55067;SDS011;40965;52.368;9.712;2023-04-25T09:58:46;4.43;;;1.00;;
55067;SDS011;40965;52.368;9.712;2023-04-25T10:01:13;5.05;;;1.52;;
55067;SDS011;40965;52.368;9.712;2023-04-25T10:03:45;2.45;;;1.30;;
55067;SDS011;40965;52.368;9.712;2023-04-25T10:06:18;2.53;;;0.70;;
55067;SDS011;40965;52.368;9.712;2023-04-25T10:08:46;6.97;;;1.10;;
55067;SDS011;40965;52.368;9.712;2023-04-25T10:11:16;5.35;;;1.23;;
55067;SDS011;40965;52.368;9.712;2023-04-25T10:13:44;8.40;;;1.33;;
55067;SDS011;40965;52.368;9.712;2023-04-25T10:16:12;5.00;;;1.20;;
55067;SDS011;40965;52.368;9.712;2023-04-25T10:18:39;2.05;;;0.90;;
55067;SDS011;40965;52.368;9.712;2023-04-25T10:21:06;4.65;;;1.35;;
55067;SDS011;40965;52.368;9.712;2023-04-25T10:23:33;1.27;;;0.73;;
55067;SDS011;40965;52.368;9.712;2023-04-25T10:26:00;3.17;;;1.08;;
55067;SDS011;40965;52.368;9.712;2023-04-25T10:28:28;2.30;;;0.70;;
55067;SDS011;40965;52.368;9.712;2023-04-25T10:31:04;1.92;;;1.10;;
55067;SDS011;40965;52.368;9.712;2023-04-25T10:33:34;3.55;;;1.05;;
55067;SDS011;40965;52.368;9.712;2023-04-25T10:36:21;7.28;;;1.35;;
55067;SDS011;40965;52.368;9.712;2023-04-25T10:38:50;1.70;;;0.82;;
55067;SDS011;40965;52.368;9.712;2023-04-25T10:41:18;8.13;;;1.23;;
55067;SDS011;40965;52.368;9.712;2023-04-25T10:43:48;6.85;;;1.13;;
55067;SDS011;40965;52.368;9.712;2023-04-25T10:46:21;7.05;;;1.10;;
55067;SDS011;40965;52.368;9.712;2023-04-25T10:49:00;3.53;;;1.35;;
55067;SDS011;40965;52.368;9.712;2023-04-25T10:51:31;5.68;;;1.27;;
55067;SDS011;40965;52.368;9.712;2023-04-25T10:54:04;2.53;;;1.08;;
55067;SDS011;40965;52.368;9.712;2023-04-25T10:56:32;7.13;;;1.45;;
55067;SDS011;40965;52.368;9.712;2023-04-25T10:59:14;13.25;;;1.73;;
55067;SDS011;40965;52.368;9.712;2023-04-25T11:01:49;5.00;;;0.73;;
55067;SDS011;40965;52.368;9.712;2023-04-25T11:04:29;5.35;;;1.67;;
55067;SDS011;40965;52.368;9.712;2023-04-25T11:07:13;2.38;;;0.90;;
55067;SDS011;40965;52.368;9.712;2023-04-25T11:09:55;2.63;;;1.25;;
55067;SDS011;40965;52.368;9.712;2023-04-25T11:12:24;3.60;;;1.23;;
55067;SDS011;40965;52.368;9.712;2023-04-25T11:14:51;4.78;;;1.20;;
55067;SDS011;40965;52.368;9.712;2023-04-25T11:17:29;1.88;;;0.93;;
55067;SDS011;40965;52.368;9.712;2023-04-25T11:19:56;6.18;;;1.10;;
55067;SDS011;40965;52.368;9.712;2023-04-25T11:22:23;4.63;;;1.70;;
55067;SDS011;40965;52.368;9.712;2023-04-25T11:24:49;4.40;;;1.48;;
55067;SDS011;40965;52.368;9.712;2023-04-25T11:27:16;1.63;;;1.30;;
55067;SDS011;40965;52.368;9.712;2023-04-25T11:29:46;3.45;;;1.00;;
55067;SDS011;40965;52.368;9.712;2023-04-25T11:32:14;10.25;;;2.38;;
55067;SDS011;40965;52.368;9.712;2023-04-25T11:34:43;5.80;;;1.45;;
55067;SDS011;40965;52.368;9.712;2023-04-25T11:37:11;5.47;;;1.13;;
55067;SDS011;40965;52.368;9.712;2023-04-25T11:39:38;3.47;;;1.58;;
55067;SDS011;40965;52.368;9.712;2023-04-25T11:42:08;5.47;;;1.42;;
55067;SDS011;40965;52.368;9.712;2023-04-25T11:44:38;4.05;;;1.60;;
55067;SDS011;40965;52.368;9.712;2023-04-25T11:47:05;2.60;;;0.95;;
55067;SDS011;40965;52.368;9.712;2023-04-25T11:49:32;6.00;;;1.00;;
55067;SDS011;40965;52.368;9.712;2023-04-25T11:52:00;5.47;;;1.35;;
55067;SDS011;40965;52.368;9.712;2023-04-25T11:54:26;5.13;;;0.88;;
55067;SDS011;40965;52.368;9.712;2023-04-25T11:56:55;3.33;;;1.30;;
55067;SDS011;40965;52.368;9.712;2023-04-25T11:59:23;2.17;;;1.70;;
55067;SDS011;40965;52.368;9.712;2023-04-25T12:01:51;4.63;;;1.13;;
55067;SDS011;40965;52.368;9.712;2023-04-25T12:04:19;8.90;;;1.50;;
55067;SDS011;40965;52.368;9.712;2023-04-25T12:06:48;3.38;;;1.25;;
55067;SDS011;40965;52.368;9.712;2023-04-25T12:09:20;4.05;;;1.13;;
55067;SDS011;40965;52.368;9.712;2023-04-25T12:11:54;9.80;;;1.13;;
55067;SDS011;40965;52.368;9.712;2023-04-25T12:14:28;4.30;;;0.85;;
55067;SDS011;40965;52.368;9.712;2023-04-25T12:17:00;3.40;;;0.73;;
55067;SDS011;40965;52.368;9.712;2023-04-25T12:19:33;2.63;;;0.43;;
55067;SDS011;40965;52.368;9.712;2023-04-25T12:22:02;2.05;;;0.40;;
55067;SDS011;40965;52.368;9.712;2023-04-25T12:24:32;3.10;;;0.40;;
55067;SDS011;40965;52.368;9.712;2023-04-25T12:27:03;0.88;;;0.43;;
55067;SDS011;40965;52.368;9.712;2023-04-25T12:29:33;1.50;;;0.30;;
55067;SDS011;40965;52.368;9.712;2023-04-25T12:32:00;1.95;;;0.70;;
55067;SDS011;40965;52.368;9.712;2023-04-25T12:34:27;5.40;;;0.85;;
55067;SDS011;40965;52.368;9.712;2023-04-25T12:36:54;1.58;;;0.85;;
55067;SDS011;40965;52.368;9.712;2023-04-25T12:39:22;5.45;;;0.80;;
55067;SDS011;40965;52.368;9.712;2023-04-25T12:41:51;0.93;;;0.38;;
55067;SDS011;40965;52.368;9.712;2023-04-25T12:44:19;1.55;;;0.68;;
55067;SDS011;40965;52.368;9.712;2023-04-25T12:46:46;2.35;;;0.50;;
55067;SDS011;40965;52.368;9.712;2023-04-25T12:49:14;0.95;;;0.80;;
55067;SDS011;40965;52.368;9.712;2023-04-25T12:51:40;3.50;;;0.90;;
55067;SDS011;40965;52.368;9.712;2023-04-25T12:54:07;2.15;;;0.45;;
55067;SDS011;40965;52.368;9.712;2023-04-25T12:56:34;1.02;;;0.30;;
55067;SDS011;40965;52.368;9.712;2023-04-25T12:59:02;0.73;;;0.10;;
55067;SDS011;40965;52.368;9.712;2023-04-25T13:01:29;0.88;;;0.28;;
55067;SDS011;40965;52.368;9.712;2023-04-25T13:03:55;1.00;;;0.40;;
55067;SDS011;40965;52.368;9.712;2023-04-25T13:06:22;0.73;;;0.50;;
55067;SDS011;40965;52.368;9.712;2023-04-25T13:08:49;0.55;;;0.30;;
55067;SDS011;40965;52.368;9.712;2023-04-25T13:11:15;2.50;;;0.30;;
55067;SDS011;40965;52.368;9.712;2023-04-25T13:13:43;1.33;;;0.52;;
55067;SDS011;40965;52.368;9.712;2023-04-25T13:16:10;3.63;;;0.60;;
55067;SDS011;40965;52.368;9.712;2023-04-25T13:18:38;2.42;;;0.77;;
55067;SDS011;40965;52.368;9.712;2023-04-25T13:21:05;2.17;;;0.47;;
55067;SDS011;40965;52.368;9.712;2023-04-25T13:23:32;4.13;;;0.90;;
55067;SDS011;40965;52.368;9.712;2023-04-25T13:25:59;3.35;;;1.38;;
55067;SDS011;40965;52.368;9.712;2023-04-25T13:28:26;1.33;;;0.60;;
55067;SDS011;40965;52.368;9.712;2023-04-25T13:30:54;8.00;;;0.90;;
55067;SDS011;40965;52.368;9.712;2023-04-25T13:33:20;3.10;;;0.80;;
55067;SDS011;40965;52.368;9.712;2023-04-25T13:35:48;5.20;;;1.40;;
55067;SDS011;40965;52.368;9.712;2023-04-25T13:38:19;2.92;;;0.50;;
55067;SDS011;40965;52.368;9.712;2023-04-25T13:40:54;5.47;;;0.90;;
55067;SDS011;40965;52.368;9.712;2023-04-25T13:43:21;0.80;;;0.60;;
55067;SDS011;40965;52.368;9.712;2023-04-25T13:45:48;2.92;;;1.08;;
55067;SDS011;40965;52.368;9.712;2023-04-25T13:48:16;0.70;;;0.30;;
55067;SDS011;40965;52.368;9.712;2023-04-25T13:50:44;2.63;;;1.35;;
55067;SDS011;40965;52.368;9.712;2023-04-25T13:53:12;1.92;;;0.63;;
55067;SDS011;40965;52.368;9.712;2023-04-25T13:55:39;3.80;;;0.93;;
55067;SDS011;40965;52.368;9.712;2023-04-25T13:58:05;3.53;;;1.30;;
55067;SDS011;40965;52.368;9.712;2023-04-25T14:00:35;2.25;;;0.82;;
55067;SDS011;40965;52.368;9.712;2023-04-25T14:03:04;4.97;;;0.80;;
55067;SDS011;40965;52.368;9.712;2023-04-25T14:05:32;4.35;;;0.88;;
55067;SDS011;40965;52.368;9.712;2023-04-25T14:08:03;2.92;;;0.80;;
55067;SDS011;40965;52.368;9.712;2023-04-25T14:10:41;6.20;;;2.25;;
55067;SDS011;40965;52.368;9.712;2023-04-25T14:13:07;2.88;;;1.23;;
55067;SDS011;40965;52.368;9.712;2023-04-25T14:15:34;3.67;;;1.38;;
55067;SDS011;40965;52.368;9.712;2023-04-25T14:18:01;2.50;;;1.35;;
55067;SDS011;40965;52.368;9.712;2023-04-25T14:20:28;2.58;;;0.80;;
55067;SDS011;40965;52.368;9.712;2023-04-25T14:22:55;4.75;;;1.10;;
55067;SDS011;40965;52.368;9.712;2023-04-25T14:25:23;2.75;;;1.13;;
55067;SDS011;40965;52.368;9.712;2023-04-25T14:27:50;2.45;;;0.90;;
55067;SDS011;40965;52.368;9.712;2023-04-25T14:30:20;5.25;;;1.80;;
55067;SDS011;40965;52.368;9.712;2023-04-25T14:32:50;2.22;;;0.90;;
55067;SDS011;40965;52.368;9.712;2023-04-25T14:35:17;2.95;;;1.00;;
55067;SDS011;40965;52.368;9.712;2023-04-25T14:37:43;2.95;;;1.25;;
55067;SDS011;40965;52.368;9.712;2023-04-25T14:40:10;1.92;;;0.95;;
55067;SDS011;40965;52.368;9.712;2023-04-25T14:42:40;3.33;;;1.23;;
55067;SDS011;40965;52.368;9.712;2023-04-25T14:45:07;2.25;;;0.80;;
55067;SDS011;40965;52.368;9.712;2023-04-25T14:47:37;5.40;;;0.65;;
55067;SDS011;40965;52.368;9.712;2023-04-25T14:50:05;1.42;;;0.60;;